sensor_id;sensor_type;location;lat;lon;timestamp;temperature;humidity
74923;HTU21D;64715;44.760;37.678;2023-02-01T00:00:42;0.51;83.72
74923;HTU21D;64715;44.760;37.678;2023-02-01T00:01:43;0.51;83.71
74923;HTU21D;64715;44.760;37.678;2023-02-01T00:02:44;0.51;83.79
74923;HTU21D;64715;44.760;37.678;2023-02-01T00:03:45;0.50;83.52
74923;HTU21D;64715;44.760;37.678;2023-02-01T00:04:46;0.50;83.78
74923;HTU21D;64715;44.760;37.678;2023-02-01T00:05:57;0.50;83.71
74923;HTU21D;64715;44.760;37.678;2023-02-01T00:06:58;0.51;83.57
74923;HTU21D;64715;44.760;37.678;2023-02-01T00:08:00;0.53;83.79
74923;HTU21D;64715;44.760;37.678;2023-02-01T00:09:01;0.53;83.97
74923;HTU21D;64715;44.760;37.678;2023-02-01T00:10:03;0.52;83.81
74923;HTU21D;64715;44.760;37.678;2023-02-01T00:11:08;0.53;83.79
74923;HTU21D;64715;44.760;37.678;2023-02-01T00:12:09;0.54;83.39
74923;HTU21D;64715;44.760;37.678;2023-02-01T00:13:10;0.54;84.16
74923;HTU21D;64715;44.760;37.678;2023-02-01T00:14:11;0.53;84.09
74923;HTU21D;64715;44.760;37.678;2023-02-01T00:15:12;0.55;84.10
74923;HTU21D;64715;44.760;37.678;2023-02-01T00:16:18;0.59;83.71
74923;HTU21D;64715;44.760;37.678;2023-02-01T00:17:19;0.59;83.81
74923;HTU21D;64715;44.760;37.678;2023-02-01T00:18:21;0.59;83.99
74923;HTU21D;64715;44.760;37.678;2023-02-01T00:19:22;0.60;84.06
74923;HTU21D;64715;44.760;37.678;2023-02-01T00:20:23;0.61;83.81
74923;HTU21D;64715;44.760;37.678;2023-02-01T00:21:24;0.64;84.29
74923;HTU21D;64715;44.760;37.678;2023-02-01T00:22:25;0.66;84.41
74923;HTU21D;64715;44.760;37.678;2023-02-01T00:23:26;0.71;84.58
74923;HTU21D;64715;44.760;37.678;2023-02-01T00:24:27;0.68;84.34
74923;HTU21D;64715;44.760;37.678;2023-02-01T00:25:28;0.72;84.22
74923;HTU21D;64715;44.760;37.678;2023-02-01T00:26:35;0.75;84.69
74923;HTU21D;64715;44.760;37.678;2023-02-01T00:27:36;0.75;84.48
74923;HTU21D;64715;44.760;37.678;2023-02-01T00:28:37;0.80;84.54
74923;HTU21D;64715;44.760;37.678;2023-02-01T00:29:38;0.81;84.52
74923;HTU21D;64715;44.760;37.678;2023-02-01T00:30:39;0.84;84.70
74923;HTU21D;64715;44.760;37.678;2023-02-01T00:31:40;0.86;84.49
74923;HTU21D;64715;44.760;37.678;2023-02-01T00:32:41;0.88;84.63
74923;HTU21D;64715;44.760;37.678;2023-02-01T00:33:42;0.89;84.66
74923;HTU21D;64715;44.760;37.678;2023-02-01T00:34:43;0.89;84.59
74923;HTU21D;64715;44.760;37.678;2023-02-01T00:35:44;0.89;84.35
74923;HTU21D;64715;44.760;37.678;2023-02-01T00:36:45;0.88;84.62
74923;HTU21D;64715;44.760;37.678;2023-02-01T00:37:46;0.87;84.40
74923;HTU21D;64715;44.760;37.678;2023-02-01T00:38:47;0.84;84.35
74923;HTU21D;64715;44.760;37.678;2023-02-01T00:39:48;0.87;84.68
74923;HTU21D;64715;44.760;37.678;2023-02-01T00:40:50;0.84;84.16
74923;HTU21D;64715;44.760;37.678;2023-02-01T00:41:51;0.83;84.09
74923;HTU21D;64715;44.760;37.678;2023-02-01T00:42:52;0.81;84.28
74923;HTU21D;64715;44.760;37.678;2023-02-01T00:43:53;0.80;84.00
74923;HTU21D;64715;44.760;37.678;2023-02-01T00:44:54;0.78;83.88
74923;HTU21D;64715;44.760;37.678;2023-02-01T00:45:55;0.75;83.92
74923;HTU21D;64715;44.760;37.678;2023-02-01T00:46:56;0.76;83.87
74923;HTU21D;64715;44.760;37.678;2023-02-01T00:47:57;0.75;83.87
74923;HTU21D;64715;44.760;37.678;2023-02-01T00:48:59;0.75;84.00
74923;HTU21D;64715;44.760;37.678;2023-02-01T00:50:00;0.74;83.93
74923;HTU21D;64715;44.760;37.678;2023-02-01T00:51:11;0.72;84.17
74923;HTU21D;64715;44.760;37.678;2023-02-01T00:52:14;0.73;84.22
74923;HTU21D;64715;44.760;37.678;2023-02-01T00:53:15;0.75;84.07
74923;HTU21D;64715;44.760;37.678;2023-02-01T00:54:16;0.73;84.23
74923;HTU21D;64715;44.760;37.678;2023-02-01T00:55:17;0.74;84.10
74923;HTU21D;64715;44.760;37.678;2023-02-01T00:56:18;0.75;84.41
74923;HTU21D;64715;44.760;37.678;2023-02-01T00:57:19;0.77;84.29
74923;HTU21D;64715;44.760;37.678;2023-02-01T00:58:20;0.76;84.55
74923;HTU21D;64715;44.760;37.678;2023-02-01T00:59:23;0.76;84.16
74923;HTU21D;64715;44.760;37.678;2023-02-01T01:00:24;0.80;84.55
74923;HTU21D;64715;44.760;37.678;2023-02-01T01:01:26;0.79;85.06
74923;HTU21D;64715;44.760;37.678;2023-02-01T01:02:29;0.81;84.70
74923;HTU21D;64715;44.760;37.678;2023-02-01T01:03:31;0.80;84.68
74923;HTU21D;64715;44.760;37.678;2023-02-01T01:04:34;0.80;84.65
74923;HTU21D;64715;44.760;37.678;2023-02-01T01:05:35;0.81;84.58
74923;HTU21D;64715;44.760;37.678;2023-02-01T01:06:36;0.80;84.45
74923;HTU21D;64715;44.760;37.678;2023-02-01T01:07:38;0.77;84.57
74923;HTU21D;64715;44.760;37.678;2023-02-01T01:08:39;0.77;84.53
74923;HTU21D;64715;44.760;37.678;2023-02-01T01:09:41;0.76;84.31
74923;HTU21D;64715;44.760;37.678;2023-02-01T01:10:42;0.74;84.18
74923;HTU21D;64715;44.760;37.678;2023-02-01T01:11:43;0.74;84.05
74923;HTU21D;64715;44.760;37.678;2023-02-01T01:12:45;0.69;83.91
74923;HTU21D;64715;44.760;37.678;2023-02-01T01:13:47;0.69;84.00
74923;HTU21D;64715;44.760;37.678;2023-02-01T01:14:49;0.68;83.91
74923;HTU21D;64715;44.760;37.678;2023-02-01T01:15:50;0.67;83.99
74923;HTU21D;64715;44.760;37.678;2023-02-01T01:16:51;0.64;83.68
74923;HTU21D;64715;44.760;37.678;2023-02-01T01:17:52;0.62;83.85
74923;HTU21D;64715;44.760;37.678;2023-02-01T01:18:53;0.60;83.66
74923;HTU21D;64715;44.760;37.678;2023-02-01T01:19:55;0.58;83.48
74923;HTU21D;64715;44.760;37.678;2023-02-01T01:20:56;0.59;83.47
74923;HTU21D;64715;44.760;37.678;2023-02-01T01:21:58;0.57;83.52
74923;HTU21D;64715;44.760;37.678;2023-02-01T01:22:58;0.50;83.39
74923;HTU21D;64715;44.760;37.678;2023-02-01T01:24:00;0.52;83.53
74923;HTU21D;64715;44.760;37.678;2023-02-01T01:25:01;0.50;83.23
74923;HTU21D;64715;44.760;37.678;2023-02-01T01:26:11;0.49;83.59
74923;HTU21D;64715;44.760;37.678;2023-02-01T01:27:13;0.45;83.55
74923;HTU21D;64715;44.760;37.678;2023-02-01T01:28:14;0.45;83.61
74923;HTU21D;64715;44.760;37.678;2023-02-01T01:29:15;0.40;83.32
74923;HTU21D;64715;44.760;37.678;2023-02-01T01:30:16;0.40;83.59
74923;HTU21D;64715;44.760;37.678;2023-02-01T01:31:19;0.40;83.60
74923;HTU21D;64715;44.760;37.678;2023-02-01T01:32:20;0.39;83.51
74923;HTU21D;64715;44.760;37.678;2023-02-01T01:33:21;0.37;83.62
74923;HTU21D;64715;44.760;37.678;2023-02-01T01:34:22;0.37;83.84
74923;HTU21D;64715;44.760;37.678;2023-02-01T01:35:24;0.34;83.73
74923;HTU21D;64715;44.760;37.678;2023-02-01T01:36:26;0.33;83.67
74923;HTU21D;64715;44.760;37.678;2023-02-01T01:37:27;0.32;83.67
74923;HTU21D;64715;44.760;37.678;2023-02-01T01:38:28;0.30;83.52
74923;HTU21D;64715;44.760;37.678;2023-02-01T01:39:30;0.29;83.65
74923;HTU21D;64715;44.760;37.678;2023-02-01T01:40:31;0.27;83.54
74923;HTU21D;64715;44.760;37.678;2023-02-01T01:41:33;0.25;83.57
74923;HTU21D;64715;44.760;37.678;2023-02-01T01:42:47;0.24;83.90
74923;HTU21D;64715;44.760;37.678;2023-02-01T01:44:03;0.22;83.78
74923;HTU21D;64715;44.760;37.678;2023-02-01T01:46:24;0.20;83.44
74923;HTU21D;64715;44.760;37.678;2023-02-01T01:47:26;0.19;83.71
74923;HTU21D;64715;44.760;37.678;2023-02-01T01:48:30;0.19;83.81
74923;HTU21D;64715;44.760;37.678;2023-02-01T01:49:32;0.18;83.90
74923;HTU21D;64715;44.760;37.678;2023-02-01T01:50:35;0.22;84.10
74923;HTU21D;64715;44.760;37.678;2023-02-01T01:51:55;0.23;84.33
74923;HTU21D;64715;44.760;37.678;2023-02-01T01:52:58;0.25;84.40
74923;HTU21D;64715;44.760;37.678;2023-02-01T01:54:18;0.30;84.52
74923;HTU21D;64715;44.760;37.678;2023-02-01T01:55:22;0.32;84.60
74923;HTU21D;64715;44.760;37.678;2023-02-01T01:56:26;0.32;84.82
74923;HTU21D;64715;44.760;37.678;2023-02-01T01:57:38;0.35;85.06
74923;HTU21D;64715;44.760;37.678;2023-02-01T01:58:40;0.39;84.74
74923;HTU21D;64715;44.760;37.678;2023-02-01T01:59:45;0.40;85.02
74923;HTU21D;64715;44.760;37.678;2023-02-01T02:00:47;0.44;84.78
74923;HTU21D;64715;44.760;37.678;2023-02-01T02:01:48;0.44;85.04
74923;HTU21D;64715;44.760;37.678;2023-02-01T02:02:56;0.48;85.09
74923;HTU21D;64715;44.760;37.678;2023-02-01T02:03:57;0.49;84.88
74923;HTU21D;64715;44.760;37.678;2023-02-01T02:04:59;0.51;85.09
74923;HTU21D;64715;44.760;37.678;2023-02-01T02:06:02;0.52;84.95
74923;HTU21D;64715;44.760;37.678;2023-02-01T02:07:23;0.52;84.95
74923;HTU21D;64715;44.760;37.678;2023-02-01T02:08:26;0.55;84.87
74923;HTU21D;64715;44.760;37.678;2023-02-01T02:09:28;0.54;85.22
74923;HTU21D;64715;44.760;37.678;2023-02-01T02:10:29;0.55;85.00
74923;HTU21D;64715;44.760;37.678;2023-02-01T02:11:49;0.57;84.90
74923;HTU21D;64715;44.760;37.678;2023-02-01T02:12:50;0.57;84.62
74923;HTU21D;64715;44.760;37.678;2023-02-01T02:13:53;0.59;85.11
74923;HTU21D;64715;44.760;37.678;2023-02-01T02:14:55;0.58;85.00
74923;HTU21D;64715;44.760;37.678;2023-02-01T02:16:04;0.60;84.97
74923;HTU21D;64715;44.760;37.678;2023-02-01T02:18:29;0.60;84.82
74923;HTU21D;64715;44.760;37.678;2023-02-01T02:20:20;0.61;84.64
74923;HTU21D;64715;44.760;37.678;2023-02-01T02:24:16;0.59;84.66
74923;HTU21D;64715;44.760;37.678;2023-02-01T02:32:10;0.43;84.40
74923;HTU21D;64715;44.760;37.678;2023-02-01T02:36:01;0.36;83.71
74923;HTU21D;64715;44.760;37.678;2023-02-01T02:38:27;0.33;83.91
74923;HTU21D;64715;44.760;37.678;2023-02-01T02:41:05;0.28;84.29
74923;HTU21D;64715;44.760;37.678;2023-02-01T02:43:48;0.29;84.06
74923;HTU21D;64715;44.760;37.678;2023-02-01T02:45:18;0.30;84.16
74923;HTU21D;64715;44.760;37.678;2023-02-01T02:46:45;0.30;84.29
74923;HTU21D;64715;44.760;37.678;2023-02-01T02:48:17;0.31;84.29
74923;HTU21D;64715;44.760;37.678;2023-02-01T02:49:33;0.33;84.45
74923;HTU21D;64715;44.760;37.678;2023-02-01T02:52:03;0.37;84.59
74923;HTU21D;64715;44.760;37.678;2023-02-01T02:53:32;0.39;84.61
74923;HTU21D;64715;44.760;37.678;2023-02-01T02:54:54;0.40;84.87
74923;HTU21D;64715;44.760;37.678;2023-02-01T02:55:56;0.43;84.85
74923;HTU21D;64715;44.760;37.678;2023-02-01T02:58:46;0.47;84.88
74923;HTU21D;64715;44.760;37.678;2023-02-01T03:00:12;0.50;85.04
74923;HTU21D;64715;44.760;37.678;2023-02-01T03:01:34;0.53;84.91
74923;HTU21D;64715;44.760;37.678;2023-02-01T03:02:54;0.57;84.97
74923;HTU21D;64715;44.760;37.678;2023-02-01T03:04:14;0.59;85.06
74923;HTU21D;64715;44.760;37.678;2023-02-01T03:05:20;0.61;84.99
74923;HTU21D;64715;44.760;37.678;2023-02-01T03:06:23;0.62;85.50
74923;HTU21D;64715;44.760;37.678;2023-02-01T03:07:55;0.67;84.71
74923;HTU21D;64715;44.760;37.678;2023-02-01T03:08:58;0.67;85.12
74923;HTU21D;64715;44.760;37.678;2023-02-01T03:10:03;0.71;84.82
74923;HTU21D;64715;44.760;37.678;2023-02-01T03:11:08;0.73;85.00
74923;HTU21D;64715;44.760;37.678;2023-02-01T03:12:13;0.74;84.81
74923;HTU21D;64715;44.760;37.678;2023-02-01T03:13:53;0.78;84.97
74923;HTU21D;64715;44.760;37.678;2023-02-01T03:14:58;0.79;84.94
74923;HTU21D;64715;44.760;37.678;2023-02-01T03:17:21;0.83;85.01
74923;HTU21D;64715;44.760;37.678;2023-02-01T03:18:35;0.84;84.74
74923;HTU21D;64715;44.760;37.678;2023-02-01T03:19:42;0.87;84.59
74923;HTU21D;64715;44.760;37.678;2023-02-01T03:20:51;0.88;84.69
74923;HTU21D;64715;44.760;37.678;2023-02-01T03:22:09;0.90;84.79
74923;HTU21D;64715;44.760;37.678;2023-02-01T03:23:14;0.91;84.30
74923;HTU21D;64715;44.760;37.678;2023-02-01T03:24:30;0.92;84.48
74923;HTU21D;64715;44.760;37.678;2023-02-01T03:25:36;0.94;84.29
74923;HTU21D;64715;44.760;37.678;2023-02-01T03:26:40;0.94;84.21
74923;HTU21D;64715;44.760;37.678;2023-02-01T03:28:04;0.95;84.01
74923;HTU21D;64715;44.760;37.678;2023-02-01T03:29:16;0.95;84.32
74923;HTU21D;64715;44.760;37.678;2023-02-01T03:31:24;0.95;83.85
74923;HTU21D;64715;44.760;37.678;2023-02-01T03:32:25;0.94;84.32
74923;HTU21D;64715;44.760;37.678;2023-02-01T03:33:27;0.93;83.93
74923;HTU21D;64715;44.760;37.678;2023-02-01T03:34:31;0.93;83.84
74923;HTU21D;64715;44.760;37.678;2023-02-01T03:35:55;0.93;83.98
74923;HTU21D;64715;44.760;37.678;2023-02-01T03:37:02;0.93;83.82
74923;HTU21D;64715;44.760;37.678;2023-02-01T03:41:11;0.88;83.59
74923;HTU21D;64715;44.760;37.678;2023-02-01T03:42:40;0.84;83.39
74923;HTU21D;64715;44.760;37.678;2023-02-01T03:45:01;0.79;83.32
74923;HTU21D;64715;44.760;37.678;2023-02-01T03:46:09;0.78;83.37
74923;HTU21D;64715;44.760;37.678;2023-02-01T03:47:21;0.74;83.55
74923;HTU21D;64715;44.760;37.678;2023-02-01T03:48:27;0.75;83.36
74923;HTU21D;64715;44.760;37.678;2023-02-01T03:49:49;0.73;83.59
74923;HTU21D;64715;44.760;37.678;2023-02-01T03:50:55;0.73;83.52
74923;HTU21D;64715;44.760;37.678;2023-02-01T03:51:58;0.72;83.61
74923;HTU21D;64715;44.760;37.678;2023-02-01T03:53:13;0.76;83.52
74923;HTU21D;64715;44.760;37.678;2023-02-01T03:54:19;0.74;83.53
74923;HTU21D;64715;44.760;37.678;2023-02-01T03:55:22;0.76;83.98
74923;HTU21D;64715;44.760;37.678;2023-02-01T03:56:25;0.78;83.97
74923;HTU21D;64715;44.760;37.678;2023-02-01T03:57:35;0.81;83.87
74923;HTU21D;64715;44.760;37.678;2023-02-01T03:58:38;0.84;83.81
74923;HTU21D;64715;44.760;37.678;2023-02-01T03:59:43;0.88;83.89
74923;HTU21D;64715;44.760;37.678;2023-02-01T04:01:05;0.94;84.09
74923;HTU21D;64715;44.760;37.678;2023-02-01T04:02:10;0.92;84.19
74923;HTU21D;64715;44.760;37.678;2023-02-01T04:03:11;1.01;84.01
74923;HTU21D;64715;44.760;37.678;2023-02-01T04:04:12;1.03;84.07
74923;HTU21D;64715;44.760;37.678;2023-02-01T04:05:22;1.03;84.03
74923;HTU21D;64715;44.760;37.678;2023-02-01T04:06:31;1.07;83.98
74923;HTU21D;64715;44.760;37.678;2023-02-01T04:07:36;1.11;83.98
74923;HTU21D;64715;44.760;37.678;2023-02-01T04:08:37;1.14;83.95
74923;HTU21D;64715;44.760;37.678;2023-02-01T04:09:38;1.19;83.99
74923;HTU21D;64715;44.760;37.678;2023-02-01T04:10:39;1.19;83.97
74923;HTU21D;64715;44.760;37.678;2023-02-01T04:11:41;1.25;83.71
74923;HTU21D;64715;44.760;37.678;2023-02-01T04:12:41;1.29;83.65
74923;HTU21D;64715;44.760;37.678;2023-02-01T04:13:43;1.35;83.45
74923;HTU21D;64715;44.760;37.678;2023-02-01T04:14:44;1.37;83.74
74923;HTU21D;64715;44.760;37.678;2023-02-01T04:15:46;1.42;83.40
74923;HTU21D;64715;44.760;37.678;2023-02-01T04:16:50;1.43;83.46
74923;HTU21D;64715;44.760;37.678;2023-02-01T04:17:51;1.49;83.13
74923;HTU21D;64715;44.760;37.678;2023-02-01T04:18:52;1.52;83.16
74923;HTU21D;64715;44.760;37.678;2023-02-01T04:19:53;1.55;83.19
74923;HTU21D;64715;44.760;37.678;2023-02-01T04:20:54;1.56;83.05
74923;HTU21D;64715;44.760;37.678;2023-02-01T04:21:55;1.60;82.86
74923;HTU21D;64715;44.760;37.678;2023-02-01T04:22:55;1.64;82.93
74923;HTU21D;64715;44.760;37.678;2023-02-01T04:23:56;1.67;82.64
74923;HTU21D;64715;44.760;37.678;2023-02-01T04:24:57;1.69;82.73
74923;HTU21D;64715;44.760;37.678;2023-02-01T04:26:00;1.72;82.52
74923;HTU21D;64715;44.760;37.678;2023-02-01T04:27:02;1.76;82.68
74923;HTU21D;64715;44.760;37.678;2023-02-01T04:28:03;1.78;82.39
74923;HTU21D;64715;44.760;37.678;2023-02-01T04:29:05;1.80;82.34
74923;HTU21D;64715;44.760;37.678;2023-02-01T04:30:06;1.84;82.02
74923;HTU21D;64715;44.760;37.678;2023-02-01T04:31:11;1.88;82.26
74923;HTU21D;64715;44.760;37.678;2023-02-01T04:32:12;1.91;82.54
74923;HTU21D;64715;44.760;37.678;2023-02-01T04:33:13;1.94;82.13
74923;HTU21D;64715;44.760;37.678;2023-02-01T04:34:16;1.95;82.13
74923;HTU21D;64715;44.760;37.678;2023-02-01T04:35:17;1.96;82.40
74923;HTU21D;64715;44.760;37.678;2023-02-01T04:36:19;2.00;82.11
74923;HTU21D;64715;44.760;37.678;2023-02-01T04:37:23;2.02;82.18
74923;HTU21D;64715;44.760;37.678;2023-02-01T04:38:24;2.07;82.18
74923;HTU21D;64715;44.760;37.678;2023-02-01T04:39:25;2.09;82.00
74923;HTU21D;64715;44.760;37.678;2023-02-01T04:40:26;2.09;82.03
74923;HTU21D;64715;44.760;37.678;2023-02-01T04:41:26;2.13;82.04
74923;HTU21D;64715;44.760;37.678;2023-02-01T04:42:27;2.15;81.91
74923;HTU21D;64715;44.760;37.678;2023-02-01T04:43:28;2.17;81.88
74923;HTU21D;64715;44.760;37.678;2023-02-01T04:44:30;2.20;81.78
74923;HTU21D;64715;44.760;37.678;2023-02-01T04:45:31;2.20;81.68
74923;HTU21D;64715;44.760;37.678;2023-02-01T04:46:32;2.24;81.78
74923;HTU21D;64715;44.760;37.678;2023-02-01T04:47:33;2.27;81.71
74923;HTU21D;64715;44.760;37.678;2023-02-01T04:48:34;2.29;81.53
74923;HTU21D;64715;44.760;37.678;2023-02-01T04:49:35;2.31;81.67
74923;HTU21D;64715;44.760;37.678;2023-02-01T04:50:36;2.32;81.07
74923;HTU21D;64715;44.760;37.678;2023-02-01T04:51:37;2.36;81.36
74923;HTU21D;64715;44.760;37.678;2023-02-01T04:52:38;2.38;81.01
74923;HTU21D;64715;44.760;37.678;2023-02-01T04:53:39;2.40;80.98
74923;HTU21D;64715;44.760;37.678;2023-02-01T04:54:40;2.43;81.09
74923;HTU21D;64715;44.760;37.678;2023-02-01T04:55:42;2.44;80.70
74923;HTU21D;64715;44.760;37.678;2023-02-01T04:56:43;2.46;80.85
74923;HTU21D;64715;44.760;37.678;2023-02-01T04:57:45;2.49;80.82
74923;HTU21D;64715;44.760;37.678;2023-02-01T04:58:46;2.50;80.53
74923;HTU21D;64715;44.760;37.678;2023-02-01T04:59:47;2.52;80.68
74923;HTU21D;64715;44.760;37.678;2023-02-01T05:00:48;2.54;80.44
74923;HTU21D;64715;44.760;37.678;2023-02-01T05:01:50;2.55;80.52
74923;HTU21D;64715;44.760;37.678;2023-02-01T05:02:51;2.57;80.51
74923;HTU21D;64715;44.760;37.678;2023-02-01T05:03:52;2.58;80.39
74923;HTU21D;64715;44.760;37.678;2023-02-01T05:04:54;2.60;80.18
74923;HTU21D;64715;44.760;37.678;2023-02-01T05:05:56;2.65;80.46
74923;HTU21D;64715;44.760;37.678;2023-02-01T05:06:57;2.64;80.34
74923;HTU21D;64715;44.760;37.678;2023-02-01T05:07:58;2.66;80.39
74923;HTU21D;64715;44.760;37.678;2023-02-01T05:08:59;2.70;80.41
74923;HTU21D;64715;44.760;37.678;2023-02-01T05:10:00;2.69;80.41
74923;HTU21D;64715;44.760;37.678;2023-02-01T05:11:01;2.73;80.60
74923;HTU21D;64715;44.760;37.678;2023-02-01T05:12:04;2.79;80.27
74923;HTU21D;64715;44.760;37.678;2023-02-01T05:13:25;2.88;80.61
74923;HTU21D;64715;44.760;37.678;2023-02-01T05:14:45;2.96;80.40
74923;HTU21D;64715;44.760;37.678;2023-02-01T05:15:46;2.99;80.42
74923;HTU21D;64715;44.760;37.678;2023-02-01T05:16:47;3.04;80.21
74923;HTU21D;64715;44.760;37.678;2023-02-01T05:17:49;3.11;80.08
74923;HTU21D;64715;44.760;37.678;2023-02-01T05:18:50;3.12;79.90
74923;HTU21D;64715;44.760;37.678;2023-02-01T05:19:50;3.17;79.99
74923;HTU21D;64715;44.760;37.678;2023-02-01T05:20:51;3.19;79.93
74923;HTU21D;64715;44.760;37.678;2023-02-01T05:21:52;3.24;79.77
74923;HTU21D;64715;44.760;37.678;2023-02-01T05:22:53;3.25;79.93
74923;HTU21D;64715;44.760;37.678;2023-02-01T05:23:54;3.30;79.63
74923;HTU21D;64715;44.760;37.678;2023-02-01T05:25:10;3.32;79.33
74923;HTU21D;64715;44.760;37.678;2023-02-01T05:26:11;3.35;79.34
74923;HTU21D;64715;44.760;37.678;2023-02-01T05:27:12;3.42;79.82
74923;HTU21D;64715;44.760;37.678;2023-02-01T05:28:13;3.54;80.36
74923;HTU21D;64715;44.760;37.678;2023-02-01T05:29:15;3.69;80.87
74923;HTU21D;64715;44.760;37.678;2023-02-01T05:30:16;3.87;80.81
74923;HTU21D;64715;44.760;37.678;2023-02-01T05:31:17;4.09;80.95
74923;HTU21D;64715;44.760;37.678;2023-02-01T05:32:18;4.36;81.21
74923;HTU21D;64715;44.760;37.678;2023-02-01T05:33:19;4.65;80.69
74923;HTU21D;64715;44.760;37.678;2023-02-01T05:34:20;4.93;80.71
74923;HTU21D;64715;44.760;37.678;2023-02-01T05:35:21;5.20;80.08
74923;HTU21D;64715;44.760;37.678;2023-02-01T05:36:22;5.45;79.69
74923;HTU21D;64715;44.760;37.678;2023-02-01T05:37:23;5.68;79.19
74923;HTU21D;64715;44.760;37.678;2023-02-01T05:38:24;5.93;79.00
74923;HTU21D;64715;44.760;37.678;2023-02-01T05:39:26;6.21;78.72
74923;HTU21D;64715;44.760;37.678;2023-02-01T05:40:27;6.49;78.50
74923;HTU21D;64715;44.760;37.678;2023-02-01T05:41:27;6.78;77.80
74923;HTU21D;64715;44.760;37.678;2023-02-01T05:42:28;7.08;77.24
74923;HTU21D;64715;44.760;37.678;2023-02-01T05:43:29;7.35;76.41
74923;HTU21D;64715;44.760;37.678;2023-02-01T05:44:30;7.65;75.84
74923;HTU21D;64715;44.760;37.678;2023-02-01T05:45:32;7.89;75.21
74923;HTU21D;64715;44.760;37.678;2023-02-01T05:46:34;8.11;74.18
74923;HTU21D;64715;44.760;37.678;2023-02-01T05:47:35;8.24;73.52
74923;HTU21D;64715;44.760;37.678;2023-02-01T05:48:37;8.32;72.45
74923;HTU21D;64715;44.760;37.678;2023-02-01T05:49:38;8.38;72.37
74923;HTU21D;64715;44.760;37.678;2023-02-01T05:50:39;8.44;71.75
74923;HTU21D;64715;44.760;37.678;2023-02-01T05:51:43;8.52;71.19
74923;HTU21D;64715;44.760;37.678;2023-02-01T05:52:44;8.62;70.74
74923;HTU21D;64715;44.760;37.678;2023-02-01T05:53:45;8.73;70.34
74923;HTU21D;64715;44.760;37.678;2023-02-01T05:54:46;8.81;70.02
74923;HTU21D;64715;44.760;37.678;2023-02-01T05:55:50;8.90;69.32
74923;HTU21D;64715;44.760;37.678;2023-02-01T05:56:51;8.98;68.84
74923;HTU21D;64715;44.760;37.678;2023-02-01T05:57:52;9.03;68.61
74923;HTU21D;64715;44.760;37.678;2023-02-01T05:58:53;9.11;68.58
74923;HTU21D;64715;44.760;37.678;2023-02-01T05:59:54;9.15;67.78
74923;HTU21D;64715;44.760;37.678;2023-02-01T06:00:58;9.20;67.48
74923;HTU21D;64715;44.760;37.678;2023-02-01T06:01:59;9.20;66.92
74923;HTU21D;64715;44.760;37.678;2023-02-01T06:03:00;9.18;66.39
74923;HTU21D;64715;44.760;37.678;2023-02-01T06:04:02;9.12;65.72
74923;HTU21D;64715;44.760;37.678;2023-02-01T06:05:03;9.09;65.33
74923;HTU21D;64715;44.760;37.678;2023-02-01T06:06:04;9.02;65.09
74923;HTU21D;64715;44.760;37.678;2023-02-01T06:07:07;8.94;65.03
74923;HTU21D;64715;44.760;37.678;2023-02-01T06:08:08;8.87;65.03
74923;HTU21D;64715;44.760;37.678;2023-02-01T06:09:09;8.81;65.05
74923;HTU21D;64715;44.760;37.678;2023-02-01T06:10:10;8.74;64.98
74923;HTU21D;64715;44.760;37.678;2023-02-01T06:11:11;8.66;65.14
74923;HTU21D;64715;44.760;37.678;2023-02-01T06:12:13;8.60;64.63
74923;HTU21D;64715;44.760;37.678;2023-02-01T06:13:14;8.51;64.30
74923;HTU21D;64715;44.760;37.678;2023-02-01T06:14:15;8.44;64.59
74923;HTU21D;64715;44.760;37.678;2023-02-01T06:15:16;8.36;64.64
74923;HTU21D;64715;44.760;37.678;2023-02-01T06:16:18;8.34;64.72
74923;HTU21D;64715;44.760;37.678;2023-02-01T06:17:19;8.33;64.88
74923;HTU21D;64715;44.760;37.678;2023-02-01T06:18:21;8.32;64.94
74923;HTU21D;64715;44.760;37.678;2023-02-01T06:19:22;8.35;64.56
74923;HTU21D;64715;44.760;37.678;2023-02-01T06:20:23;8.38;64.27
74923;HTU21D;64715;44.760;37.678;2023-02-01T06:21:25;8.42;63.70
74923;HTU21D;64715;44.760;37.678;2023-02-01T06:22:25;8.47;63.65
74923;HTU21D;64715;44.760;37.678;2023-02-01T06:23:29;8.49;63.26
74923;HTU21D;64715;44.760;37.678;2023-02-01T06:24:30;8.49;63.08
74923;HTU21D;64715;44.760;37.678;2023-02-01T06:25:32;8.49;63.09
74923;HTU21D;64715;44.760;37.678;2023-02-01T06:26:33;8.49;62.86
74923;HTU21D;64715;44.760;37.678;2023-02-01T06:27:34;8.46;62.42
74923;HTU21D;64715;44.760;37.678;2023-02-01T06:28:36;8.48;62.35
74923;HTU21D;64715;44.760;37.678;2023-02-01T06:29:37;8.50;62.66
74923;HTU21D;64715;44.760;37.678;2023-02-01T06:30:38;8.57;62.42
74923;HTU21D;64715;44.760;37.678;2023-02-01T06:31:41;8.63;62.70
74923;HTU21D;64715;44.760;37.678;2023-02-01T06:32:43;8.74;62.76
74923;HTU21D;64715;44.760;37.678;2023-02-01T06:33:44;8.81;62.95
74923;HTU21D;64715;44.760;37.678;2023-02-01T06:34:47;8.93;62.79
74923;HTU21D;64715;44.760;37.678;2023-02-01T06:35:48;9.00;62.76
74923;HTU21D;64715;44.760;37.678;2023-02-01T06:36:49;9.09;62.63
74923;HTU21D;64715;44.760;37.678;2023-02-01T06:37:50;9.16;62.35
74923;HTU21D;64715;44.760;37.678;2023-02-01T06:38:51;9.22;62.15
74923;HTU21D;64715;44.760;37.678;2023-02-01T06:39:53;9.26;61.92
74923;HTU21D;64715;44.760;37.678;2023-02-01T06:40:55;9.31;61.80
74923;HTU21D;64715;44.760;37.678;2023-02-01T06:41:56;9.32;61.59
74923;HTU21D;64715;44.760;37.678;2023-02-01T06:42:57;9.34;61.49
74923;HTU21D;64715;44.760;37.678;2023-02-01T06:43:58;9.38;61.26
74923;HTU21D;64715;44.760;37.678;2023-02-01T06:45:00;9.39;61.50
74923;HTU21D;64715;44.760;37.678;2023-02-01T06:46:05;9.44;61.76
74923;HTU21D;64715;44.760;37.678;2023-02-01T06:47:06;9.48;61.71
74923;HTU21D;64715;44.760;37.678;2023-02-01T06:48:07;9.53;61.92
74923;HTU21D;64715;44.760;37.678;2023-02-01T06:49:08;9.59;61.83
74923;HTU21D;64715;44.760;37.678;2023-02-01T06:50:09;9.65;61.62
74923;HTU21D;64715;44.760;37.678;2023-02-01T06:51:22;9.74;61.50
74923;HTU21D;64715;44.760;37.678;2023-02-01T06:52:24;9.82;61.60
74923;HTU21D;64715;44.760;37.678;2023-02-01T06:53:25;9.95;61.05
74923;HTU21D;64715;44.760;37.678;2023-02-01T06:54:27;10.09;60.78
74923;HTU21D;64715;44.760;37.678;2023-02-01T06:55:28;10.24;60.59
74923;HTU21D;64715;44.760;37.678;2023-02-01T06:56:29;10.41;60.43
74923;HTU21D;64715;44.760;37.678;2023-02-01T06:57:31;10.56;59.92
74923;HTU21D;64715;44.760;37.678;2023-02-01T06:58:35;10.70;59.44
74923;HTU21D;64715;44.760;37.678;2023-02-01T06:59:37;10.85;59.06
74923;HTU21D;64715;44.760;37.678;2023-02-01T07:00:38;10.96;59.14
74923;HTU21D;64715;44.760;37.678;2023-02-01T07:01:39;11.07;58.64
74923;HTU21D;64715;44.760;37.678;2023-02-01T07:02:41;11.20;58.88
74923;HTU21D;64715;44.760;37.678;2023-02-01T07:03:42;11.36;58.77
74923;HTU21D;64715;44.760;37.678;2023-02-01T07:04:43;11.53;58.39
74923;HTU21D;64715;44.760;37.678;2023-02-01T07:05:44;11.67;58.25
74923;HTU21D;64715;44.760;37.678;2023-02-01T07:06:45;11.77;57.94